sensor_id;sensor_type;location;lat;lon;timestamp;P1;durP1;ratioP1;P2;durP2;ratioP2
13560;SDS011;6852;51.686;5.314;2023-02-18T00:01:19;29.20;;;16.93;;
13560;SDS011;6852;51.686;5.314;2023-02-18T00:03:48;29.37;;;16.60;;
13560;SDS011;6852;51.686;5.314;2023-02-18T00:06:19;28.90;;;16.57;;
13560;SDS011;6852;51.686;5.314;2023-02-18T00:08:46;29.57;;;16.67;;
13560;SDS011;6852;51.686;5.314;2023-02-18T00:11:14;32.67;;;17.57;;
13560;SDS011;6852;51.686;5.314;2023-02-18T00:13:42;31.87;;;16.00;;
13560;SDS011;6852;51.686;5.314;2023-02-18T00:16:14;31.57;;;16.70;;
13560;SDS011;6852;51.686;5.314;2023-02-18T00:18:40;26.20;;;16.67;;
13560;SDS011;6852;51.686;5.314;2023-02-18T00:21:07;32.20;;;17.37;;
13560;SDS011;6852;51.686;5.314;2023-02-18T00:23:34;30.93;;;15.83;;
13560;SDS011;6852;51.686;5.314;2023-02-18T00:26:06;28.57;;;16.90;;
13560;SDS011;6852;51.686;5.314;2023-02-18T00:28:35;29.40;;;15.80;;
13560;SDS011;6852;51.686;5.314;2023-02-18T00:31:06;28.47;;;15.97;;
13560;SDS011;6852;51.686;5.314;2023-02-18T00:33:37;29.60;;;15.60;;
13560;SDS011;6852;51.686;5.314;2023-02-18T00:36:06;29.23;;;16.03;;
13560;SDS011;6852;51.686;5.314;2023-02-18T00:38:35;25.80;;;15.43;;
13560;SDS011;6852;51.686;5.314;2023-02-18T00:41:02;28.80;;;16.27;;
13560;SDS011;6852;51.686;5.314;2023-02-18T00:43:29;28.23;;;14.90;;
13560;SDS011;6852;51.686;5.314;2023-02-18T00:45:56;24.50;;;14.37;;
13560;SDS011;6852;51.686;5.314;2023-02-18T00:48:23;29.57;;;16.63;;
13560;SDS011;6852;51.686;5.314;2023-02-18T00:50:50;28.13;;;14.97;;
13560;SDS011;6852;51.686;5.314;2023-02-18T00:53:16;27.47;;;15.27;;
13560;SDS011;6852;51.686;5.314;2023-02-18T00:55:44;33.70;;;16.00;;
13560;SDS011;6852;51.686;5.314;2023-02-18T00:58:13;30.43;;;16.20;;
13560;SDS011;6852;51.686;5.314;2023-02-18T01:00:40;26.57;;;15.60;;
13560;SDS011;6852;51.686;5.314;2023-02-18T01:03:08;30.43;;;15.47;;
13560;SDS011;6852;51.686;5.314;2023-02-18T01:05:36;30.77;;;15.40;;
13560;SDS011;6852;51.686;5.314;2023-02-18T01:08:04;27.60;;;15.30;;
13560;SDS011;6852;51.686;5.314;2023-02-18T01:10:31;27.37;;;14.60;;
13560;SDS011;6852;51.686;5.314;2023-02-18T01:12:58;30.63;;;16.63;;
13560;SDS011;6852;51.686;5.314;2023-02-18T01:15:26;27.63;;;14.73;;
13560;SDS011;6852;51.686;5.314;2023-02-18T01:17:53;24.97;;;14.23;;
13560;SDS011;6852;51.686;5.314;2023-02-18T01:20:19;22.80;;;13.97;;
13560;SDS011;6852;51.686;5.314;2023-02-18T01:22:46;28.73;;;15.73;;
13560;SDS011;6852;51.686;5.314;2023-02-18T01:25:14;25.33;;;13.80;;
13560;SDS011;6852;51.686;5.314;2023-02-18T01:27:41;25.57;;;14.67;;
13560;SDS011;6852;51.686;5.314;2023-02-18T01:30:09;28.13;;;15.13;;
13560;SDS011;6852;51.686;5.314;2023-02-18T01:32:39;27.60;;;14.73;;
13560;SDS011;6852;51.686;5.314;2023-02-18T01:35:06;24.10;;;14.53;;
13560;SDS011;6852;51.686;5.314;2023-02-18T01:37:33;28.40;;;15.80;;
13560;SDS011;6852;51.686;5.314;2023-02-18T01:40:00;25.67;;;15.67;;
13560;SDS011;6852;51.686;5.314;2023-02-18T01:42:27;26.97;;;15.63;;
13560;SDS011;6852;51.686;5.314;2023-02-18T01:45:32;27.93;;;16.13;;
13560;SDS011;6852;51.686;5.314;2023-02-18T01:48:01;29.73;;;15.57;;
13560;SDS011;6852;51.686;5.314;2023-02-18T01:50:46;22.87;;;13.77;;
13560;SDS011;6852;51.686;5.314;2023-02-18T01:53:20;25.60;;;14.93;;
13560;SDS011;6852;51.686;5.314;2023-02-18T01:55:56;28.57;;;14.83;;
13560;SDS011;6852;51.686;5.314;2023-02-18T01:58:25;28.67;;;16.37;;
13560;SDS011;6852;51.686;5.314;2023-02-18T02:00:52;27.50;;;15.83;;
13560;SDS011;6852;51.686;5.314;2023-02-18T02:03:19;24.67;;;14.77;;
13560;SDS011;6852;51.686;5.314;2023-02-18T02:05:45;26.00;;;15.87;;
13560;SDS011;6852;51.686;5.314;2023-02-18T02:08:12;29.83;;;16.23;;
13560;SDS011;6852;51.686;5.314;2023-02-18T02:10:43;31.63;;;17.27;;
13560;SDS011;6852;51.686;5.314;2023-02-18T02:16:11;33.33;;;18.10;;
13560;SDS011;6852;51.686;5.314;2023-02-18T02:19:03;35.57;;;18.00;;
13560;SDS011;6852;51.686;5.314;2023-02-18T02:22:15;34.87;;;19.27;;
13560;SDS011;6852;51.686;5.314;2023-02-18T02:24:52;30.57;;;18.60;;
13560;SDS011;6852;51.686;5.314;2023-02-18T02:27:28;34.60;;;18.57;;
13560;SDS011;6852;51.686;5.314;2023-02-18T02:30:06;38.17;;;20.20;;
13560;SDS011;6852;51.686;5.314;2023-02-18T02:33:20;38.90;;;20.73;;
13560;SDS011;6852;51.686;5.314;2023-02-18T02:35:51;41.70;;;18.97;;
13560;SDS011;6852;51.686;5.314;2023-02-18T02:38:29;39.90;;;20.70;;
13560;SDS011;6852;51.686;5.314;2023-02-18T02:41:29;42.33;;;20.47;;
13560;SDS011;6852;51.686;5.314;2023-02-18T02:44:14;44.43;;;20.77;;
13560;SDS011;6852;51.686;5.314;2023-02-18T02:46:47;39.73;;;19.60;;
13560;SDS011;6852;51.686;5.314;2023-02-18T02:52:11;41.10;;;19.37;;
13560;SDS011;6852;51.686;5.314;2023-02-18T02:54:42;39.37;;;19.27;;
13560;SDS011;6852;51.686;5.314;2023-02-18T02:59:40;41.70;;;21.17;;
13560;SDS011;6852;51.686;5.314;2023-02-18T03:04:56;37.33;;;19.70;;
13560;SDS011;6852;51.686;5.314;2023-02-18T03:07:33;37.13;;;20.63;;
13560;SDS011;6852;51.686;5.314;2023-02-18T03:15:48;35.97;;;17.67;;
13560;SDS011;6852;51.686;5.314;2023-02-18T03:20:54;29.93;;;16.13;;
13560;SDS011;6852;51.686;5.314;2023-02-18T03:23:29;30.10;;;14.63;;
13560;SDS011;6852;51.686;5.314;2023-02-18T03:26:00;26.13;;;13.80;;
13560;SDS011;6852;51.686;5.314;2023-02-18T03:28:29;27.90;;;14.67;;
13560;SDS011;6852;51.686;5.314;2023-02-18T03:30:58;26.10;;;14.10;;
13560;SDS011;6852;51.686;5.314;2023-02-18T03:33:36;23.97;;;12.40;;
13560;SDS011;6852;51.686;5.314;2023-02-18T03:36:10;21.03;;;11.43;;
13560;SDS011;6852;51.686;5.314;2023-02-18T03:38:53;19.67;;;10.67;;
13560;SDS011;6852;51.686;5.314;2023-02-18T03:41:27;20.23;;;9.80;;
13560;SDS011;6852;51.686;5.314;2023-02-18T03:44:03;19.97;;;10.97;;
13560;SDS011;6852;51.686;5.314;2023-02-18T03:46:34;17.43;;;9.30;;
13560;SDS011;6852;51.686;5.314;2023-02-18T03:49:02;18.97;;;9.73;;
13560;SDS011;6852;51.686;5.314;2023-02-18T03:51:29;17.37;;;8.70;;
13560;SDS011;6852;51.686;5.314;2023-02-18T03:53:57;15.87;;;8.90;;
13560;SDS011;6852;51.686;5.314;2023-02-18T03:56:24;17.77;;;9.03;;
13560;SDS011;6852;51.686;5.314;2023-02-18T03:58:50;14.13;;;8.23;;
13560;SDS011;6852;51.686;5.314;2023-02-18T04:01:17;13.10;;;8.10;;
13560;SDS011;6852;51.686;5.314;2023-02-18T04:03:44;15.63;;;7.73;;
13560;SDS011;6852;51.686;5.314;2023-02-18T04:06:11;13.37;;;7.03;;
13560;SDS011;6852;51.686;5.314;2023-02-18T04:08:38;14.93;;;7.23;;
13560;SDS011;6852;51.686;5.314;2023-02-18T04:11:04;9.43;;;5.97;;
13560;SDS011;6852;51.686;5.314;2023-02-18T04:13:31;12.60;;;6.33;;
13560;SDS011;6852;51.686;5.314;2023-02-18T04:15:58;11.57;;;6.67;;
13560;SDS011;6852;51.686;5.314;2023-02-18T04:18:25;12.47;;;6.83;;
13560;SDS011;6852;51.686;5.314;2023-02-18T04:20:52;9.90;;;6.10;;
13560;SDS011;6852;51.686;5.314;2023-02-18T04:23:19;9.73;;;6.03;;
13560;SDS011;6852;51.686;5.314;2023-02-18T04:25:45;10.10;;;5.73;;
13560;SDS011;6852;51.686;5.314;2023-02-18T04:28:13;10.80;;;6.17;;
13560;SDS011;6852;51.686;5.314;2023-02-18T04:30:40;11.80;;;5.70;;
13560;SDS011;6852;51.686;5.314;2023-02-18T04:33:08;9.13;;;5.77;;
13560;SDS011;6852;51.686;5.314;2023-02-18T04:35:35;9.90;;;5.67;;
13560;SDS011;6852;51.686;5.314;2023-02-18T04:38:02;12.27;;;6.87;;
13560;SDS011;6852;51.686;5.314;2023-02-18T04:40:29;9.87;;;5.63;;
13560;SDS011;6852;51.686;5.314;2023-02-18T04:42:56;10.43;;;6.50;;
13560;SDS011;6852;51.686;5.314;2023-02-18T04:45:24;10.23;;;6.53;;
13560;SDS011;6852;51.686;5.314;2023-02-18T04:47:51;11.80;;;6.60;;
13560;SDS011;6852;51.686;5.314;2023-02-18T04:50:19;11.73;;;6.97;;
13560;SDS011;6852;51.686;5.314;2023-02-18T04:52:46;12.40;;;6.10;;
13560;SDS011;6852;51.686;5.314;2023-02-18T04:55:13;10.10;;;6.33;;
13560;SDS011;6852;51.686;5.314;2023-02-18T04:57:40;10.00;;;6.47;;
13560;SDS011;6852;51.686;5.314;2023-02-18T05:00:07;10.07;;;6.73;;
13560;SDS011;6852;51.686;5.314;2023-02-18T05:02:38;10.93;;;6.73;;
13560;SDS011;6852;51.686;5.314;2023-02-18T05:05:05;10.90;;;6.77;;
13560;SDS011;6852;51.686;5.314;2023-02-18T05:07:32;12.93;;;6.80;;
13560;SDS011;6852;51.686;5.314;2023-02-18T05:09:59;11.53;;;6.80;;
13560;SDS011;6852;51.686;5.314;2023-02-18T05:12:26;12.10;;;6.23;;
13560;SDS011;6852;51.686;5.314;2023-02-18T05:14:52;9.77;;;6.97;;
13560;SDS011;6852;51.686;5.314;2023-02-18T05:17:19;10.37;;;6.50;;
13560;SDS011;6852;51.686;5.314;2023-02-18T05:19:46;9.90;;;6.13;;
13560;SDS011;6852;51.686;5.314;2023-02-18T05:22:13;9.57;;;6.43;;
13560;SDS011;6852;51.686;5.314;2023-02-18T05:24:39;10.83;;;6.37;;
13560;SDS011;6852;51.686;5.314;2023-02-18T05:27:06;10.63;;;6.47;;
13560;SDS011;6852;51.686;5.314;2023-02-18T05:29:33;8.50;;;5.63;;
13560;SDS011;6852;51.686;5.314;2023-02-18T05:32:00;9.67;;;5.53;;
13560;SDS011;6852;51.686;5.314;2023-02-18T05:34:27;9.43;;;5.50;;
13560;SDS011;6852;51.686;5.314;2023-02-18T05:36:54;8.93;;;5.47;;
13560;SDS011;6852;51.686;5.314;2023-02-18T05:39:20;8.47;;;5.23;;
13560;SDS011;6852;51.686;5.314;2023-02-18T05:41:47;10.43;;;5.47;;
13560;SDS011;6852;51.686;5.314;2023-02-18T05:44:14;10.00;;;5.67;;
13560;SDS011;6852;51.686;5.314;2023-02-18T05:47:00;7.97;;;5.50;;
13560;SDS011;6852;51.686;5.314;2023-02-18T05:49:29;9.43;;;5.70;;
13560;SDS011;6852;51.686;5.314;2023-02-18T05:51:56;8.00;;;5.17;;
13560;SDS011;6852;51.686;5.314;2023-02-18T05:54:24;7.83;;;5.17;;
13560;SDS011;6852;51.686;5.314;2023-02-18T05:56:51;8.23;;;5.30;;
13560;SDS011;6852;51.686;5.314;2023-02-18T05:59:19;8.90;;;5.23;;
13560;SDS011;6852;51.686;5.314;2023-02-18T06:01:46;9.50;;;5.23;;
13560;SDS011;6852;51.686;5.314;2023-02-18T06:04:13;8.03;;;4.93;;
13560;SDS011;6852;51.686;5.314;2023-02-18T06:06:41;6.73;;;4.63;;
13560;SDS011;6852;51.686;5.314;2023-02-18T06:09:08;6.97;;;4.80;;
13560;SDS011;6852;51.686;5.314;2023-02-18T06:11:35;6.67;;;3.93;;
13560;SDS011;6852;51.686;5.314;2023-02-18T06:14:02;6.03;;;4.33;;
13560;SDS011;6852;51.686;5.314;2023-02-18T06:16:29;6.37;;;3.90;;
13560;SDS011;6852;51.686;5.314;2023-02-18T06:18:57;6.20;;;4.30;;
13560;SDS011;6852;51.686;5.314;2023-02-18T06:21:24;8.13;;;4.80;;
13560;SDS011;6852;51.686;5.314;2023-02-18T06:23:51;6.40;;;3.97;;
13560;SDS011;6852;51.686;5.314;2023-02-18T06:26:17;5.10;;;3.50;;
13560;SDS011;6852;51.686;5.314;2023-02-18T06:28:44;5.47;;;3.63;;
13560;SDS011;6852;51.686;5.314;2023-02-18T06:31:11;6.33;;;3.50;;
13560;SDS011;6852;51.686;5.314;2023-02-18T06:33:38;5.27;;;3.33;;
13560;SDS011;6852;51.686;5.314;2023-02-18T06:36:06;4.37;;;3.23;;
13560;SDS011;6852;51.686;5.314;2023-02-18T06:38:34;5.63;;;3.90;;
13560;SDS011;6852;51.686;5.314;2023-02-18T06:41:02;6.07;;;3.53;;
13560;SDS011;6852;51.686;5.314;2023-02-18T06:43:29;5.50;;;3.27;;
13560;SDS011;6852;51.686;5.314;2023-02-18T06:45:56;4.77;;;3.43;;
13560;SDS011;6852;51.686;5.314;2023-02-18T06:48:23;5.83;;;3.67;;
13560;SDS011;6852;51.686;5.314;2023-02-18T06:50:50;5.10;;;2.80;;
13560;SDS011;6852;51.686;5.314;2023-02-18T06:53:17;4.87;;;2.90;;
13560;SDS011;6852;51.686;5.314;2023-02-18T06:55:44;4.20;;;2.80;;
13560;SDS011;6852;51.686;5.314;2023-02-18T06:58:12;6.13;;;3.60;;
13560;SDS011;6852;51.686;5.314;2023-02-18T07:00:39;6.60;;;3.30;;
13560;SDS011;6852;51.686;5.314;2023-02-18T07:03:07;5.03;;;3.50;;
13560;SDS011;6852;51.686;5.314;2023-02-18T07:05:36;4.93;;;3.20;;
13560;SDS011;6852;51.686;5.314;2023-02-18T07:08:02;4.20;;;3.00;;
13560;SDS011;6852;51.686;5.314;2023-02-18T07:10:29;7.70;;;3.10;;
13560;SDS011;6852;51.686;5.314;2023-02-18T07:12:56;3.97;;;3.40;;
13560;SDS011;6852;51.686;5.314;2023-02-18T07:15:23;4.53;;;3.10;;
13560;SDS011;6852;51.686;5.314;2023-02-18T07:17:52;4.37;;;2.73;;
13560;SDS011;6852;51.686;5.314;2023-02-18T07:20:19;5.53;;;3.30;;
13560;SDS011;6852;51.686;5.314;2023-02-18T07:22:47;5.33;;;3.07;;
13560;SDS011;6852;51.686;5.314;2023-02-18T07:25:14;5.30;;;3.13;;
13560;SDS011;6852;51.686;5.314;2023-02-18T07:27:41;7.90;;;3.67;;
13560;SDS011;6852;51.686;5.314;2023-02-18T07:30:08;7.00;;;4.20;;
13560;SDS011;6852;51.686;5.314;2023-02-18T07:32:35;13.50;;;4.97;;
13560;SDS011;6852;51.686;5.314;2023-02-18T07:35:03;9.90;;;5.27;;
13560;SDS011;6852;51.686;5.314;2023-02-18T07:37:30;9.40;;;6.03;;
13560;SDS011;6852;51.686;5.314;2023-02-18T07:39:58;12.90;;;6.33;;
13560;SDS011;6852;51.686;5.314;2023-02-18T07:42:24;16.17;;;6.50;;
13560;SDS011;6852;51.686;5.314;2023-02-18T07:44:51;14.33;;;6.07;;
13560;SDS011;6852;51.686;5.314;2023-02-18T07:47:18;11.80;;;7.37;;
13560;SDS011;6852;51.686;5.314;2023-02-18T07:49:45;11.87;;;5.73;;
13560;SDS011;6852;51.686;5.314;2023-02-18T07:52:13;14.23;;;7.00;;
13560;SDS011;6852;51.686;5.314;2023-02-18T07:54:40;11.87;;;6.27;;
13560;SDS011;6852;51.686;5.314;2023-02-18T07:57:07;15.13;;;6.00;;
13560;SDS011;6852;51.686;5.314;2023-02-18T07:59:34;13.77;;;6.30;;
13560;SDS011;6852;51.686;5.314;2023-02-18T08:02:02;10.27;;;6.17;;
13560;SDS011;6852;51.686;5.314;2023-02-18T08:04:30;14.80;;;5.43;;
13560;SDS011;6852;51.686;5.314;2023-02-18T08:06:57;14.47;;;6.07;;
13560;SDS011;6852;51.686;5.314;2023-02-18T08:09:24;13.67;;;5.57;;
13560;SDS011;6852;51.686;5.314;2023-02-18T08:11:51;13.97;;;6.00;;
13560;SDS011;6852;51.686;5.314;2023-02-18T08:14:17;11.90;;;5.73;;
13560;SDS011;6852;51.686;5.314;2023-02-18T08:16:44;14.30;;;5.60;;
13560;SDS011;6852;51.686;5.314;2023-02-18T08:19:11;17.87;;;5.73;;
13560;SDS011;6852;51.686;5.314;2023-02-18T08:21:38;12.73;;;5.30;;
13560;SDS011;6852;51.686;5.314;2023-02-18T08:24:05;8.33;;;4.03;;
13560;SDS011;6852;51.686;5.314;2023-02-18T08:26:33;12.80;;;5.40;;
13560;SDS011;6852;51.686;5.314;2023-02-18T08:29:00;8.87;;;4.67;;
13560;SDS011;6852;51.686;5.314;2023-02-18T08:31:28;9.73;;;4.60;;
13560;SDS011;6852;51.686;5.314;2023-02-18T08:33:56;15.00;;;4.60;;
13560;SDS011;6852;51.686;5.314;2023-02-18T08:36:24;12.60;;;4.60;;
13560;SDS011;6852;51.686;5.314;2023-02-18T08:38:52;16.97;;;5.07;;
13560;SDS011;6852;51.686;5.314;2023-02-18T08:41:19;14.60;;;4.27;;
13560;SDS011;6852;51.686;5.314;2023-02-18T08:43:46;8.00;;;3.67;;
13560;SDS011;6852;51.686;5.314;2023-02-18T08:46:13;4.43;;;3.10;;
13560;SDS011;6852;51.686;5.314;2023-02-18T08:49:00;9.50;;;4.00;;
13560;SDS011;6852;51.686;5.314;2023-02-18T08:51:27;9.90;;;3.57;;
13560;SDS011;6852;51.686;5.314;2023-02-18T08:53:55;13.50;;;4.33;;
13560;SDS011;6852;51.686;5.314;2023-02-18T08:56:22;10.80;;;4.10;;
13560;SDS011;6852;51.686;5.314;2023-02-18T08:58:48;10.03;;;3.30;;
13560;SDS011;6852;51.686;5.314;2023-02-18T09:01:15;13.37;;;3.80;;
13560;SDS011;6852;51.686;5.314;2023-02-18T09:03:42;12.43;;;3.30;;
13560;SDS011;6852;51.686;5.314;2023-02-18T09:06:09;9.07;;;3.50;;
13560;SDS011;6852;51.686;5.314;2023-02-18T09:08:36;9.17;;;2.90;;
13560;SDS011;6852;51.686;5.314;2023-02-18T09:11:03;9.60;;;3.00;;
13560;SDS011;6852;51.686;5.314;2023-02-18T09:13:31;9.47;;;2.93;;
13560;SDS011;6852;51.686;5.314;2023-02-18T09:15:59;13.27;;;3.03;;
13560;SDS011;6852;51.686;5.314;2023-02-18T09:18:32;7.57;;;2.87;;
13560;SDS011;6852;51.686;5.314;2023-02-18T09:21:01;14.03;;;3.90;;
13560;SDS011;6852;51.686;5.314;2023-02-18T09:23:29;11.33;;;3.13;;
13560;SDS011;6852;51.686;5.314;2023-02-18T09:25:57;10.40;;;3.17;;
13560;SDS011;6852;51.686;5.314;2023-02-18T09:28:24;10.43;;;3.20;;
13560;SDS011;6852;51.686;5.314;2023-02-18T09:30:51;9.73;;;2.93;;
13560;SDS011;6852;51.686;5.314;2023-02-18T09:33:19;7.50;;;2.97;;
13560;SDS011;6852;51.686;5.314;2023-02-18T09:35:46;7.10;;;3.37;;
13560;SDS011;6852;51.686;5.314;2023-02-18T09:38:14;8.80;;;2.83;;
13560;SDS011;6852;51.686;5.314;2023-02-18T09:40:43;6.53;;;2.50;;
13560;SDS011;6852;51.686;5.314;2023-02-18T09:43:17;7.20;;;2.57;;
13560;SDS011;6852;51.686;5.314;2023-02-18T09:45:50;10.67;;;2.40;;
13560;SDS011;6852;51.686;5.314;2023-02-18T09:48:19;9.30;;;2.70;;
13560;SDS011;6852;51.686;5.314;2023-02-18T09:50:52;5.60;;;2.20;;
13560;SDS011;6852;51.686;5.314;2023-02-18T09:53:20;11.20;;;3.07;;
13560;SDS011;6852;51.686;5.314;2023-02-18T09:55:48;4.80;;;1.93;;
13560;SDS011;6852;51.686;5.314;2023-02-18T09:58:20;7.13;;;2.20;;
13560;SDS011;6852;51.686;5.314;2023-02-18T10:01:01;12.53;;;2.57;;
13560;SDS011;6852;51.686;5.314;2023-02-18T10:03:39;10.10;;;1.90;;
13560;SDS011;6852;51.686;5.314;2023-02-18T10:06:10;8.03;;;2.07;;
13560;SDS011;6852;51.686;5.314;2023-02-18T10:08:46;8.27;;;2.17;;
13560;SDS011;6852;51.686;5.314;2023-02-18T10:11:23;8.53;;;2.70;;
13560;SDS011;6852;51.686;5.314;2023-02-18T10:13:56;9.67;;;2.53;;
13560;SDS011;6852;51.686;5.314;2023-02-18T10:16:26;5.73;;;2.47;;
13560;SDS011;6852;51.686;5.314;2023-02-18T10:18:54;11.53;;;2.67;;
13560;SDS011;6852;51.686;5.314;2023-02-18T10:21:24;6.87;;;2.30;;
13560;SDS011;6852;51.686;5.314;2023-02-18T10:24:01;5.73;;;2.20;;
13560;SDS011;6852;51.686;5.314;2023-02-18T10:26:41;9.93;;;2.33;;
13560;SDS011;6852;51.686;5.314;2023-02-18T10:29:12;5.67;;;1.90;;
13560;SDS011;6852;51.686;5.314;2023-02-18T10:32:00;6.67;;;2.23;;
13560;SDS011;6852;51.686;5.314;2023-02-18T10:37:40;6.87;;;2.27;;
13560;SDS011;6852;51.686;5.314;2023-02-18T10:40:36;7.07;;;2.50;;
13560;SDS011;6852;51.686;5.314;2023-02-18T10:48:46;4.20;;;2.00;;
13560;SDS011;6852;51.686;5.314;2023-02-18T10:51:25;7.50;;;2.10;;
13560;SDS011;6852;51.686;5.314;2023-02-18T10:53:54;6.37;;;2.30;;
13560;SDS011;6852;51.686;5.314;2023-02-18T10:56:38;3.50;;;2.20;;
13560;SDS011;6852;51.686;5.314;2023-02-18T11:01:52;8.97;;;3.13;;
13560;SDS011;6852;51.686;5.314;2023-02-18T11:04:35;7.20;;;2.23;;
13560;SDS011;6852;51.686;5.314;2023-02-18T11:07:14;8.77;;;2.17;;
13560;SDS011;6852;51.686;5.314;2023-02-18T11:09:48;5.00;;;1.97;;
13560;SDS011;6852;51.686;5.314;2023-02-18T11:17:44;6.70;;;1.90;;
13560;SDS011;6852;51.686;5.314;2023-02-18T11:22:56;4.73;;;2.37;;
13560;SDS011;6852;51.686;5.314;2023-02-18T11:31:08;6.27;;;2.17;;
13560;SDS011;6852;51.686;5.314;2023-02-18T11:33:42;5.90;;;2.23;;
13560;SDS011;6852;51.686;5.314;2023-02-18T11:38:49;6.50;;;2.00;;
13560;SDS011;6852;51.686;5.314;2023-02-18T11:41:19;5.43;;;2.00;;
13560;SDS011;6852;51.686;5.314;2023-02-18T11:44:01;6.20;;;2.00;;
13560;SDS011;6852;51.686;5.314;2023-02-18T11:49:26;7.03;;;2.30;;
13560;SDS011;6852;51.686;5.314;2023-02-18T11:52:02;4.07;;;1.73;;
13560;SDS011;6852;51.686;5.314;2023-02-18T11:54:31;3.33;;;1.63;;
13560;SDS011;6852;51.686;5.314;2023-02-18T11:57:02;6.03;;;2.13;;
13560;SDS011;6852;51.686;5.314;2023-02-18T11:59:32;7.40;;;1.97;;
13560;SDS011;6852;51.686;5.314;2023-02-18T12:07:22;4.43;;;1.57;;
13560;SDS011;6852;51.686;5.314;2023-02-18T12:10:03;4.90;;;1.43;;
13560;SDS011;6852;51.686;5.314;2023-02-18T12:13:26;5.60;;;1.40;;
13560;SDS011;6852;51.686;5.314;2023-02-18T12:16:21;2.80;;;1.10;;
13560;SDS011;6852;51.686;5.314;2023-02-18T12:50:54;4.00;;;1.33;;
13560;SDS011;6852;51.686;5.314;2023-02-18T12:53:24;3.57;;;1.73;;
13560;SDS011;6852;51.686;5.314;2023-02-18T12:58:57;3.50;;;1.20;;
13560;SDS011;6852;51.686;5.314;2023-02-18T13:18:10;7.17;;;1.50;;
13560;SDS011;6852;51.686;5.314;2023-02-18T13:20:42;5.97;;;1.53;;
13560;SDS011;6852;51.686;5.314;2023-02-18T13:23:22;8.53;;;1.80;;
13560;SDS011;6852;51.686;5.314;2023-02-18T13:25:55;5.83;;;1.47;;
13560;SDS011;6852;51.686;5.314;2023-02-18T13:34:09;3.17;;;1.20;;
13560;SDS011;6852;51.686;5.314;2023-02-18T13:39:17;3.20;;;1.10;;
13560;SDS011;6852;51.686;5.314;2023-02-18T13:41:47;3.03;;;1.23;;
13560;SDS011;6852;51.686;5.314;2023-02-18T13:46:53;2.80;;;1.67;;
13560;SDS011;6852;51.686;5.314;2023-02-18T13:49:34;4.50;;;1.53;;
13560;SDS011;6852;51.686;5.314;2023-02-18T13:52:05;3.07;;;1.50;;
13560;SDS011;6852;51.686;5.314;2023-02-18T13:54:33;6.90;;;1.43;;
13560;SDS011;6852;51.686;5.314;2023-02-18T13:57:12;3.33;;;1.10;;
13560;SDS011;6852;51.686;5.314;2023-02-18T13:59:46;6.13;;;1.83;;
13560;SDS011;6852;51.686;5.314;2023-02-18T14:05:13;5.63;;;1.47;;
13560;SDS011;6852;51.686;5.314;2023-02-18T14:07:48;4.43;;;1.47;;
13560;SDS011;6852;51.686;5.314;2023-02-18T14:23:11;5.33;;;1.63;;
13560;SDS011;6852;51.686;5.314;2023-02-18T14:28:52;2.23;;;1.30;;
13560;SDS011;6852;51.686;5.314;2023-02-18T14:31:43;5.20;;;1.43;;
13560;SDS011;6852;51.686;5.314;2023-02-18T14:39:44;6.40;;;1.50;;
13560;SDS011;6852;51.686;5.314;2023-02-18T14:48:07;3.20;;;1.33;;
13560;SDS011;6852;51.686;5.314;2023-02-18T14:50:54;5.17;;;1.53;;
13560;SDS011;6852;51.686;5.314;2023-02-18T14:53:25;3.67;;;1.33;;
13560;SDS011;6852;51.686;5.314;2023-02-18T14:55:57;5.97;;;1.43;;
13560;SDS011;6852;51.686;5.314;2023-02-18T14:58:30;6.30;;;1.50;;
13560;SDS011;6852;51.686;5.314;2023-02-18T15:01:06;4.80;;;1.50;;
13560;SDS011;6852;51.686;5.314;2023-02-18T15:03:47;5.60;;;1.30;;
13560;SDS011;6852;51.686;5.314;2023-02-18T15:08:48;5.20;;;1.50;;
13560;SDS011;6852;51.686;5.314;2023-02-18T15:11:15;6.13;;;1.70;;
13560;SDS011;6852;51.686;5.314;2023-02-18T15:13:43;6.63;;;1.40;;
13560;SDS011;6852;51.686;5.314;2023-02-18T15:16:32;4.67;;;1.17;;
13560;SDS011;6852;51.686;5.314;2023-02-18T15:18:59;5.37;;;1.70;;
13560;SDS011;6852;51.686;5.314;2023-02-18T15:21:36;5.07;;;2.03;;
13560;SDS011;6852;51.686;5.314;2023-02-18T15:24:14;8.13;;;1.50;;
13560;SDS011;6852;51.686;5.314;2023-02-18T15:27:00;5.50;;;1.57;;
13560;SDS011;6852;51.686;5.314;2023-02-18T15:29:36;5.23;;;1.80;;
13560;SDS011;6852;51.686;5.314;2023-02-18T15:32:16;5.37;;;1.60;;
13560;SDS011;6852;51.686;5.314;2023-02-18T15:34:50;4.17;;;1.43;;
13560;SDS011;6852;51.686;5.314;2023-02-18T15:37:19;6.33;;;1.47;;
13560;SDS011;6852;51.686;5.314;2023-02-18T15:39:45;6.20;;;1.23;;
13560;SDS011;6852;51.686;5.314;2023-02-18T15:42:29;6.50;;;1.33;;
13560;SDS011;6852;51.686;5.314;2023-02-18T15:45:02;5.37;;;1.90;;
13560;SDS011;6852;51.686;5.314;2023-02-18T15:47:29;3.20;;;1.60;;
13560;SDS011;6852;51.686;5.314;2023-02-18T15:49:58;5.23;;;1.50;;
13560;SDS011;6852;51.686;5.314;2023-02-18T15:52:32;6.97;;;1.80;;
13560;SDS011;6852;51.686;5.314;2023-02-18T15:55:05;5.27;;;1.50;;
13560;SDS011;6852;51.686;5.314;2023-02-18T15:57:38;4.40;;;1.43;;
13560;SDS011;6852;51.686;5.314;2023-02-18T16:00:13;3.93;;;1.43;;
13560;SDS011;6852;51.686;5.314;2023-02-18T16:03:01;6.57;;;1.60;;
13560;SDS011;6852;51.686;5.314;2023-02-18T16:05:38;8.47;;;2.10;;
13560;SDS011;6852;51.686;5.314;2023-02-18T16:08:16;7.20;;;1.97;;
13560;SDS011;6852;51.686;5.314;2023-02-18T16:10:53;4.37;;;1.97;;
13560;SDS011;6852;51.686;5.314;2023-02-18T16:13:32;7.07;;;1.60;;
13560;SDS011;6852;51.686;5.314;2023-02-18T16:16:01;3.67;;;1.60;;
13560;SDS011;6852;51.686;5.314;2023-02-18T16:23:53;7.03;;;1.70;;
13560;SDS011;6852;51.686;5.314;2023-02-18T16:26:26;6.47;;;1.47;;
13560;SDS011;6852;51.686;5.314;2023-02-18T16:29:10;4.87;;;1.20;;
13560;SDS011;6852;51.686;5.314;2023-02-18T16:31:39;8.93;;;1.87;;
13560;SDS011;6852;51.686;5.314;2023-02-18T16:34:06;8.17;;;2.40;;
13560;SDS011;6852;51.686;5.314;2023-02-18T16:36:33;7.03;;;1.57;;
13560;SDS011;6852;51.686;5.314;2023-02-18T16:39:00;3.73;;;1.53;;
13560;SDS011;6852;51.686;5.314;2023-02-18T16:41:27;5.80;;;1.57;;
13560;SDS011;6852;51.686;5.314;2023-02-18T16:43:54;4.87;;;1.90;;
13560;SDS011;6852;51.686;5.314;2023-02-18T16:46:22;6.33;;;1.60;;
13560;SDS011;6852;51.686;5.314;2023-02-18T16:48:51;8.17;;;1.97;;
13560;SDS011;6852;51.686;5.314;2023-02-18T16:51:30;5.03;;;1.63;;
13560;SDS011;6852;51.686;5.314;2023-02-18T16:53:59;3.60;;;1.67;;
13560;SDS011;6852;51.686;5.314;2023-02-18T16:56:28;5.90;;;2.10;;
13560;SDS011;6852;51.686;5.314;2023-02-18T16:58:58;7.90;;;1.97;;
13560;SDS011;6852;51.686;5.314;2023-02-18T17:01:29;5.40;;;1.90;;
13560;SDS011;6852;51.686;5.314;2023-02-18T17:04:02;5.47;;;1.80;;
13560;SDS011;6852;51.686;5.314;2023-02-18T17:06:33;12.90;;;2.73;;
13560;SDS011;6852;51.686;5.314;2023-02-18T17:09:04;7.97;;;2.77;;
13560;SDS011;6852;51.686;5.314;2023-02-18T17:11:43;6.83;;;3.00;;
13560;SDS011;6852;51.686;5.314;2023-02-18T17:14:16;7.57;;;3.13;;
13560;SDS011;6852;51.686;5.314;2023-02-18T17:16:47;9.33;;;3.57;;
13560;SDS011;6852;51.686;5.314;2023-02-18T17:19:15;9.90;;;3.97;;
13560;SDS011;6852;51.686;5.314;2023-02-18T17:21:42;7.73;;;3.33;;
13560;SDS011;6852;51.686;5.314;2023-02-18T17:24:13;6.37;;;3.20;;
13560;SDS011;6852;51.686;5.314;2023-02-18T17:26:41;10.73;;;4.03;;
13560;SDS011;6852;51.686;5.314;2023-02-18T17:29:08;9.27;;;4.70;;
13560;SDS011;6852;51.686;5.314;2023-02-18T17:31:36;15.13;;;6.43;;
13560;SDS011;6852;51.686;5.314;2023-02-18T17:34:07;11.20;;;6.87;;
13560;SDS011;6852;51.686;5.314;2023-02-18T17:36:37;11.00;;;6.77;;
13560;SDS011;6852;51.686;5.314;2023-02-18T17:39:11;13.07;;;6.83;;
13560;SDS011;6852;51.686;5.314;2023-02-18T17:41:40;14.00;;;7.33;;
13560;SDS011;6852;51.686;5.314;2023-02-18T17:44:20;14.70;;;8.53;;
13560;SDS011;6852;51.686;5.314;2023-02-18T17:46:48;12.53;;;8.63;;
13560;SDS011;6852;51.686;5.314;2023-02-18T17:49:16;15.53;;;8.70;;
13560;SDS011;6852;51.686;5.314;2023-02-18T17:51:42;14.80;;;8.53;;